sensor_id;sensor_type;location;lat;lon;timestamp;P1;durP1;ratioP1;P2;durP2;ratioP2
25199;SDS011;33094;48.782;9.162;2023-07-02T00:00:39;6.90;;;5.30;;
25199;SDS011;33094;48.782;9.162;2023-07-02T00:05:41;6.65;;;5.05;;
25199;SDS011;33094;48.782;9.162;2023-07-02T00:08:23;6.65;;;5.05;;
25199;SDS011;33094;48.782;9.162;2023-07-02T00:11:30;7.45;;;4.95;;
25199;SDS011;33094;48.782;9.162;2023-07-02T00:14:53;7.75;;;5.03;;
25199;SDS011;33094;48.782;9.162;2023-07-02T00:17:49;6.72;;;5.03;;
25199;SDS011;33094;48.782;9.162;2023-07-02T00:20:16;5.27;;;4.50;;
25199;SDS011;33094;48.782;9.162;2023-07-02T00:25:18;7.10;;;5.15;;
25199;SDS011;33094;48.782;9.162;2023-07-02T00:28:36;6.88;;;4.85;;
25199;SDS011;33094;48.782;9.162;2023-07-02T00:33:50;5.97;;;4.72;;
25199;SDS011;33094;48.782;9.162;2023-07-02T00:44:24;6.32;;;4.95;;
25199;SDS011;33094;48.782;9.162;2023-07-02T00:46:50;6.40;;;4.03;;
25199;SDS011;33094;48.782;9.162;2023-07-02T00:49:16;4.78;;;4.25;;
25199;SDS011;33094;48.782;9.162;2023-07-02T00:59:29;5.80;;;4.00;;
25199;SDS011;33094;48.782;9.162;2023-07-02T01:01:56;7.03;;;3.90;;
25199;SDS011;33094;48.782;9.162;2023-07-02T01:04:22;4.28;;;3.88;;
25199;SDS011;33094;48.782;9.162;2023-07-02T01:06:52;4.57;;;4.18;;
25199;SDS011;33094;48.782;9.162;2023-07-02T01:09:22;6.43;;;4.18;;
25199;SDS011;33094;48.782;9.162;2023-07-02T01:11:52;8.23;;;4.10;;
25199;SDS011;33094;48.782;9.162;2023-07-02T01:14:26;6.40;;;3.92;;
25199;SDS011;33094;48.782;9.162;2023-07-02T01:16:52;6.45;;;3.92;;
25199;SDS011;33094;48.782;9.162;2023-07-02T01:22:06;4.60;;;4.20;;
25199;SDS011;33094;48.782;9.162;2023-07-02T01:24:33;5.72;;;3.72;;
25199;SDS011;33094;48.782;9.162;2023-07-02T01:26:59;6.88;;;3.20;;
25199;SDS011;33094;48.782;9.162;2023-07-02T01:29:30;4.45;;;3.90;;
25199;SDS011;33094;48.782;9.162;2023-07-02T01:31:56;7.25;;;4.05;;
25199;SDS011;33094;48.782;9.162;2023-07-02T01:34:22;4.63;;;3.67;;
25199;SDS011;33094;48.782;9.162;2023-07-02T01:36:48;5.10;;;4.07;;
25199;SDS011;33094;48.782;9.162;2023-07-02T01:39:14;7.72;;;3.80;;
25199;SDS011;33094;48.782;9.162;2023-07-02T01:41:44;5.78;;;4.53;;
25199;SDS011;33094;48.782;9.162;2023-07-02T01:49:39;4.15;;;3.25;;
25199;SDS011;33094;48.782;9.162;2023-07-02T01:52:05;4.53;;;3.38;;
25199;SDS011;33094;48.782;9.162;2023-07-02T01:54:32;3.53;;;3.22;;
25199;SDS011;33094;48.782;9.162;2023-07-02T01:56:59;5.53;;;3.50;;
25199;SDS011;33094;48.782;9.162;2023-07-02T01:59:25;5.17;;;3.83;;
25199;SDS011;33094;48.782;9.162;2023-07-02T02:01:51;6.00;;;3.60;;
25199;SDS011;33094;48.782;9.162;2023-07-02T02:04:17;5.38;;;3.42;;
25199;SDS011;33094;48.782;9.162;2023-07-02T02:06:43;5.32;;;3.72;;
25199;SDS011;33094;48.782;9.162;2023-07-02T02:09:09;7.22;;;3.50;;
25199;SDS011;33094;48.782;9.162;2023-07-02T02:11:41;4.65;;;3.65;;
25199;SDS011;33094;48.782;9.162;2023-07-02T02:19:20;4.93;;;3.85;;
25199;SDS011;33094;48.782;9.162;2023-07-02T02:21:53;4.63;;;3.60;;
25199;SDS011;33094;48.782;9.162;2023-07-02T02:24:54;5.75;;;3.63;;
25199;SDS011;33094;48.782;9.162;2023-07-02T02:27:20;3.97;;;3.42;;
25199;SDS011;33094;48.782;9.162;2023-07-02T02:29:46;5.23;;;3.63;;
25199;SDS011;33094;48.782;9.162;2023-07-02T02:37:22;6.88;;;3.95;;
25199;SDS011;33094;48.782;9.162;2023-07-02T02:39:48;6.05;;;3.40;;
25199;SDS011;33094;48.782;9.162;2023-07-02T02:44:41;4.67;;;3.77;;
25199;SDS011;33094;48.782;9.162;2023-07-02T02:47:06;4.35;;;3.95;;
25199;SDS011;33094;48.782;9.162;2023-07-02T02:49:32;4.18;;;3.72;;
25199;SDS011;33094;48.782;9.162;2023-07-02T02:51:58;3.88;;;3.40;;
25199;SDS011;33094;48.782;9.162;2023-07-02T02:54:23;8.30;;;3.95;;
25199;SDS011;33094;48.782;9.162;2023-07-02T02:56:49;7.18;;;3.92;;
25199;SDS011;33094;48.782;9.162;2023-07-02T02:59:14;6.55;;;4.13;;
25199;SDS011;33094;48.782;9.162;2023-07-02T03:01:40;4.15;;;3.75;;
25199;SDS011;33094;48.782;9.162;2023-07-02T03:04:06;9.68;;;3.95;;
25199;SDS011;33094;48.782;9.162;2023-07-02T03:06:33;7.88;;;3.30;;
25199;SDS011;33094;48.782;9.162;2023-07-02T03:08:59;5.45;;;3.45;;
25199;SDS011;33094;48.782;9.162;2023-07-02T03:11:26;4.47;;;3.10;;
25199;SDS011;33094;48.782;9.162;2023-07-02T03:13:54;8.02;;;3.70;;
25199;SDS011;33094;48.782;9.162;2023-07-02T03:16:20;5.75;;;3.17;;
25199;SDS011;33094;48.782;9.162;2023-07-02T04:00:13;9.30;;;6.05;;
25199;SDS011;33094;48.782;9.162;2023-07-02T04:34:03;10.63;;;6.03;;
25199;SDS011;33094;48.782;9.162;2023-07-02T04:39:08;11.05;;;5.75;;
25199;SDS011;33094;48.782;9.162;2023-07-02T04:44:24;10.10;;;4.70;;
25199;SDS011;33094;48.782;9.162;2023-07-02T04:52:19;12.00;;;5.18;;
25199;SDS011;33094;48.782;9.162;2023-07-02T04:57:22;8.98;;;6.05;;
25199;SDS011;33094;48.782;9.162;2023-07-02T05:02:51;10.60;;;6.00;;
25199;SDS011;33094;48.782;9.162;2023-07-02T05:05:23;7.60;;;5.13;;
25199;SDS011;33094;48.782;9.162;2023-07-02T05:13:19;9.32;;;5.28;;
25199;SDS011;33094;48.782;9.162;2023-07-02T05:16:06;11.32;;;5.43;;
25199;SDS011;33094;48.782;9.162;2023-07-02T05:18:47;10.43;;;5.00;;
25199;SDS011;33094;48.782;9.162;2023-07-02T05:21:17;6.60;;;4.57;;
25199;SDS011;33094;48.782;9.162;2023-07-02T05:23:50;8.07;;;4.35;;
25199;SDS011;33094;48.782;9.162;2023-07-02T05:26:17;15.65;;;5.55;;
25199;SDS011;33094;48.782;9.162;2023-07-02T05:28:47;6.75;;;4.68;;
25199;SDS011;33094;48.782;9.162;2023-07-02T07:54:02;28.58;;;15.25;;
25199;SDS011;33094;48.782;9.162;2023-07-02T08:30:17;31.63;;;16.45;;
25199;SDS011;33094;48.782;9.162;2023-07-02T08:43:04;27.98;;;15.98;;
25199;SDS011;33094;48.782;9.162;2023-07-02T08:50:41;27.20;;;15.27;;
25199;SDS011;33094;48.782;9.162;2023-07-02T08:53:07;26.17;;;15.85;;
25199;SDS011;33094;48.782;9.162;2023-07-02T08:55:33;29.70;;;15.27;;
25199;SDS011;33094;48.782;9.162;2023-07-02T08:57:58;30.33;;;15.23;;
25199;SDS011;33094;48.782;9.162;2023-07-02T09:08:27;21.77;;;12.32;;
25199;SDS011;33094;48.782;9.162;2023-07-02T09:13:48;22.08;;;12.70;;
25199;SDS011;33094;48.782;9.162;2023-07-02T09:19:02;22.70;;;13.25;;
25199;SDS011;33094;48.782;9.162;2023-07-02T09:21:46;21.85;;;12.70;;
25199;SDS011;33094;48.782;9.162;2023-07-02T09:24:17;21.40;;;13.23;;
25199;SDS011;33094;48.782;9.162;2023-07-02T09:29:09;23.63;;;13.60;;
25199;SDS011;33094;48.782;9.162;2023-07-02T09:31:45;23.15;;;13.90;;
25199;SDS011;33094;48.782;9.162;2023-07-02T09:36:38;22.50;;;12.50;;
25199;SDS011;33094;48.782;9.162;2023-07-02T09:39:18;21.25;;;13.23;;
25199;SDS011;33094;48.782;9.162;2023-07-02T09:41:45;23.58;;;13.25;;
25199;SDS011;33094;48.782;9.162;2023-07-02T09:44:15;22.95;;;13.52;;
25199;SDS011;33094;48.782;9.162;2023-07-02T09:46:42;18.95;;;12.32;;
25199;SDS011;33094;48.782;9.162;2023-07-02T09:49:18;21.75;;;12.88;;
25199;SDS011;33094;48.782;9.162;2023-07-02T09:51:46;19.70;;;12.98;;
25199;SDS011;33094;48.782;9.162;2023-07-02T09:54:11;25.03;;;13.73;;
25199;SDS011;33094;48.782;9.162;2023-07-02T09:56:39;20.05;;;13.18;;
25199;SDS011;33094;48.782;9.162;2023-07-02T09:59:05;23.77;;;13.85;;
25199;SDS011;33094;48.782;9.162;2023-07-02T10:01:30;21.93;;;12.73;;
25199;SDS011;33094;48.782;9.162;2023-07-02T10:03:56;19.60;;;13.23;;
25199;SDS011;33094;48.782;9.162;2023-07-02T10:06:22;20.77;;;12.80;;
25199;SDS011;33094;48.782;9.162;2023-07-02T10:08:57;22.17;;;13.13;;
25199;SDS011;33094;48.782;9.162;2023-07-02T10:11:32;25.05;;;14.23;;
25199;SDS011;33094;48.782;9.162;2023-07-02T10:14:01;23.50;;;13.32;;
25199;SDS011;33094;48.782;9.162;2023-07-02T10:16:26;20.57;;;13.70;;
25199;SDS011;33094;48.782;9.162;2023-07-02T10:18:53;20.47;;;13.47;;
25199;SDS011;33094;48.782;9.162;2023-07-02T10:23:45;20.08;;;13.27;;
25199;SDS011;33094;48.782;9.162;2023-07-02T10:26:18;22.60;;;13.20;;
25199;SDS011;33094;48.782;9.162;2023-07-02T10:28:57;24.05;;;14.23;;
25199;SDS011;33094;48.782;9.162;2023-07-02T10:31:23;21.33;;;14.05;;
25199;SDS011;33094;48.782;9.162;2023-07-02T10:33:49;25.93;;;15.23;;
25199;SDS011;33094;48.782;9.162;2023-07-02T10:36:21;28.23;;;15.87;;
25199;SDS011;33094;48.782;9.162;2023-07-02T10:38:48;25.75;;;15.32;;
25199;SDS011;33094;48.782;9.162;2023-07-02T10:43:53;29.48;;;15.63;;
25199;SDS011;33094;48.782;9.162;2023-07-02T10:46:20;21.08;;;13.57;;
25199;SDS011;33094;48.782;9.162;2023-07-02T10:48:54;24.85;;;14.57;;
25199;SDS011;33094;48.782;9.162;2023-07-02T10:51:21;25.30;;;14.52;;
25199;SDS011;33094;48.782;9.162;2023-07-02T10:53:59;27.87;;;15.90;;
25199;SDS011;33094;48.782;9.162;2023-07-02T10:56:27;24.83;;;15.23;;
25199;SDS011;33094;48.782;9.162;2023-07-02T10:58:54;24.17;;;15.45;;
25199;SDS011;33094;48.782;9.162;2023-07-02T11:03:56;27.60;;;15.73;;
25199;SDS011;33094;48.782;9.162;2023-07-02T11:06:23;23.90;;;14.32;;
25199;SDS011;33094;48.782;9.162;2023-07-02T11:08:48;24.70;;;14.10;;
25199;SDS011;33094;48.782;9.162;2023-07-02T11:11:14;27.20;;;17.10;;
25199;SDS011;33094;48.782;9.162;2023-07-02T11:13:44;24.53;;;14.97;;
25199;SDS011;33094;48.782;9.162;2023-07-02T11:16:32;21.67;;;14.88;;
25199;SDS011;33094;48.782;9.162;2023-07-02T11:19:07;23.77;;;14.88;;
25199;SDS011;33094;48.782;9.162;2023-07-02T11:21:33;21.45;;;14.73;;
25199;SDS011;33094;48.782;9.162;2023-07-02T11:24:03;20.77;;;14.35;;
25199;SDS011;33094;48.782;9.162;2023-07-02T11:26:40;26.02;;;15.63;;
25199;SDS011;33094;48.782;9.162;2023-07-02T11:29:11;23.10;;;15.05;;
25199;SDS011;33094;48.782;9.162;2023-07-02T11:31:37;26.20;;;15.35;;
25199;SDS011;33094;48.782;9.162;2023-07-02T11:34:11;26.40;;;15.10;;
25199;SDS011;33094;48.782;9.162;2023-07-02T11:36:37;21.88;;;14.48;;
25199;SDS011;33094;48.782;9.162;2023-07-02T11:39:03;25.37;;;15.43;;
25199;SDS011;33094;48.782;9.162;2023-07-02T11:41:39;20.92;;;14.65;;
25199;SDS011;33094;48.782;9.162;2023-07-02T11:48:57;20.92;;;13.90;;
25199;SDS011;33094;48.782;9.162;2023-07-02T11:51:24;22.40;;;14.30;;
25199;SDS011;33094;48.782;9.162;2023-07-02T11:53:50;20.87;;;14.20;;
25199;SDS011;33094;48.782;9.162;2023-07-02T11:56:16;24.67;;;15.83;;
25199;SDS011;33094;48.782;9.162;2023-07-02T11:58:42;24.97;;;14.30;;
25199;SDS011;33094;48.782;9.162;2023-07-02T12:01:08;23.98;;;14.73;;
25199;SDS011;33094;48.782;9.162;2023-07-02T12:03:33;20.90;;;14.00;;
25199;SDS011;33094;48.782;9.162;2023-07-02T12:05:59;26.53;;;14.37;;
25199;SDS011;33094;48.782;9.162;2023-07-02T12:08:25;25.57;;;14.20;;
25199;SDS011;33094;48.782;9.162;2023-07-02T12:10:50;21.73;;;14.02;;
25199;SDS011;33094;48.782;9.162;2023-07-02T12:13:16;22.67;;;15.13;;
25199;SDS011;33094;48.782;9.162;2023-07-02T12:15:42;19.10;;;14.30;;
25199;SDS011;33094;48.782;9.162;2023-07-02T12:18:08;20.75;;;14.43;;
25199;SDS011;33094;48.782;9.162;2023-07-02T12:20:34;21.33;;;14.20;;
25199;SDS011;33094;48.782;9.162;2023-07-02T12:23:00;21.67;;;14.03;;
25199;SDS011;33094;48.782;9.162;2023-07-02T12:25:25;22.00;;;15.30;;
25199;SDS011;33094;48.782;9.162;2023-07-02T12:32:44;25.38;;;14.95;;
25199;SDS011;33094;48.782;9.162;2023-07-02T12:35:10;23.25;;;14.43;;
25199;SDS011;33094;48.782;9.162;2023-07-02T12:37:42;20.88;;;14.20;;
25199;SDS011;33094;48.782;9.162;2023-07-02T12:40:11;23.77;;;14.93;;
25199;SDS011;33094;48.782;9.162;2023-07-02T12:42:38;23.50;;;15.45;;
25199;SDS011;33094;48.782;9.162;2023-07-02T12:45:05;22.13;;;15.27;;
25199;SDS011;33094;48.782;9.162;2023-07-02T12:47:31;22.27;;;15.15;;
25199;SDS011;33094;48.782;9.162;2023-07-02T12:49:57;24.40;;;15.10;;
25199;SDS011;33094;48.782;9.162;2023-07-02T12:52:23;23.90;;;15.07;;
25199;SDS011;33094;48.782;9.162;2023-07-02T12:54:48;24.43;;;13.97;;
25199;SDS011;33094;48.782;9.162;2023-07-02T12:57:14;24.97;;;14.73;;
25199;SDS011;33094;48.782;9.162;2023-07-02T12:59:39;25.60;;;15.87;;
25199;SDS011;33094;48.782;9.162;2023-07-02T13:02:05;20.83;;;14.90;;
25199;SDS011;33094;48.782;9.162;2023-07-02T13:04:31;22.88;;;15.05;;
25199;SDS011;33094;48.782;9.162;2023-07-02T13:06:56;24.43;;;14.53;;
25199;SDS011;33094;48.782;9.162;2023-07-02T13:09:22;22.27;;;15.57;;
25199;SDS011;33094;48.782;9.162;2023-07-02T13:11:47;26.17;;;15.03;;
25199;SDS011;33094;48.782;9.162;2023-07-02T13:14:13;22.30;;;15.10;;
25199;SDS011;33094;48.782;9.162;2023-07-02T13:16:39;25.55;;;14.82;;
25199;SDS011;33094;48.782;9.162;2023-07-02T13:19:04;25.67;;;15.03;;
25199;SDS011;33094;48.782;9.162;2023-07-02T13:21:30;25.20;;;14.23;;
25199;SDS011;33094;48.782;9.162;2023-07-02T13:23:55;26.13;;;15.10;;
25199;SDS011;33094;48.782;9.162;2023-07-02T13:26:21;23.93;;;15.00;;
25199;SDS011;33094;48.782;9.162;2023-07-02T13:28:47;25.43;;;16.07;;
25199;SDS011;33094;48.782;9.162;2023-07-02T13:31:13;21.65;;;14.32;;
25199;SDS011;33094;48.782;9.162;2023-07-02T13:33:39;26.30;;;15.23;;
25199;SDS011;33094;48.782;9.162;2023-07-02T13:36:05;21.20;;;14.40;;
25199;SDS011;33094;48.782;9.162;2023-07-02T13:38:31;29.90;;;15.68;;
25199;SDS011;33094;48.782;9.162;2023-07-02T13:40:57;24.60;;;14.67;;
25199;SDS011;33094;48.782;9.162;2023-07-02T13:43:23;24.27;;;15.27;;
25199;SDS011;33094;48.782;9.162;2023-07-02T13:45:48;24.37;;;15.30;;
25199;SDS011;33094;48.782;9.162;2023-07-02T13:48:14;24.40;;;16.37;;
25199;SDS011;33094;48.782;9.162;2023-07-02T13:50:40;23.03;;;15.40;;
25199;SDS011;33094;48.782;9.162;2023-07-02T13:53:05;25.20;;;15.47;;
25199;SDS011;33094;48.782;9.162;2023-07-02T13:55:31;23.00;;;15.10;;
25199;SDS011;33094;48.782;9.162;2023-07-02T13:57:57;23.90;;;15.07;;
25199;SDS011;33094;48.782;9.162;2023-07-02T14:00:24;23.60;;;14.57;;
25199;SDS011;33094;48.782;9.162;2023-07-02T14:02:51;21.13;;;14.35;;
25199;SDS011;33094;48.782;9.162;2023-07-02T14:05:17;22.83;;;14.03;;
25199;SDS011;33094;48.782;9.162;2023-07-02T14:07:42;22.27;;;15.57;;
25199;SDS011;33094;48.782;9.162;2023-07-02T14:10:08;23.50;;;15.27;;
25199;SDS011;33094;48.782;9.162;2023-07-02T14:12:35;24.35;;;14.23;;
25199;SDS011;33094;48.782;9.162;2023-07-02T14:15:00;23.13;;;15.30;;
25199;SDS011;33094;48.782;9.162;2023-07-02T14:17:26;25.23;;;16.07;;
25199;SDS011;33094;48.782;9.162;2023-07-02T14:19:52;22.30;;;14.90;;
25199;SDS011;33094;48.782;9.162;2023-07-02T14:22:17;26.43;;;16.07;;
25199;SDS011;33094;48.782;9.162;2023-07-02T14:24:43;25.20;;;15.93;;
25199;SDS011;33094;48.782;9.162;2023-07-02T14:27:08;22.83;;;14.93;;
25199;SDS011;33094;48.782;9.162;2023-07-02T14:29:34;22.07;;;15.10;;
25199;SDS011;33094;48.782;9.162;2023-07-02T14:31:59;27.47;;;15.60;;
25199;SDS011;33094;48.782;9.162;2023-07-02T14:34:25;26.67;;;15.30;;
25199;SDS011;33094;48.782;9.162;2023-07-02T14:36:52;20.95;;;14.80;;
25199;SDS011;33094;48.782;9.162;2023-07-02T14:39:18;23.10;;;14.63;;
25199;SDS011;33094;48.782;9.162;2023-07-02T14:41:43;25.77;;;15.43;;
25199;SDS011;33094;48.782;9.162;2023-07-02T14:44:09;26.33;;;15.53;;
25199;SDS011;33094;48.782;9.162;2023-07-02T14:46:35;21.83;;;15.23;;
25199;SDS011;33094;48.782;9.162;2023-07-02T14:49:00;22.30;;;15.20;;
25199;SDS011;33094;48.782;9.162;2023-07-02T14:51:26;24.00;;;14.57;;
25199;SDS011;33094;48.782;9.162;2023-07-02T14:53:52;20.90;;;14.90;;
25199;SDS011;33094;48.782;9.162;2023-07-02T14:56:17;22.90;;;15.10;;
25199;SDS011;33094;48.782;9.162;2023-07-02T14:58:43;20.97;;;14.43;;
25199;SDS011;33094;48.782;9.162;2023-07-02T15:01:09;23.00;;;15.53;;
25199;SDS011;33094;48.782;9.162;2023-07-02T15:03:34;24.97;;;15.70;;
25199;SDS011;33094;48.782;9.162;2023-07-02T15:08:37;23.70;;;15.23;;
25199;SDS011;33094;48.782;9.162;2023-07-02T15:11:03;23.20;;;15.45;;
25199;SDS011;33094;48.782;9.162;2023-07-02T15:13:29;21.37;;;15.23;;
25199;SDS011;33094;48.782;9.162;2023-07-02T15:15:54;25.03;;;16.03;;
25199;SDS011;33094;48.782;9.162;2023-07-02T15:18:20;22.33;;;14.73;;
25199;SDS011;33094;48.782;9.162;2023-07-02T15:20:46;23.80;;;15.60;;
25199;SDS011;33094;48.782;9.162;2023-07-02T15:23:14;23.98;;;15.63;;
25199;SDS011;33094;48.782;9.162;2023-07-02T15:25:39;24.87;;;16.00;;
25199;SDS011;33094;48.782;9.162;2023-07-02T15:28:05;32.23;;;16.87;;
25199;SDS011;33094;48.782;9.162;2023-07-02T15:30:30;22.80;;;14.63;;
25199;SDS011;33094;48.782;9.162;2023-07-02T15:32:56;25.37;;;15.63;;
25199;SDS011;33094;48.782;9.162;2023-07-02T15:35:22;24.80;;;16.50;;
25199;SDS011;33094;48.782;9.162;2023-07-02T15:37:48;23.30;;;15.73;;
25199;SDS011;33094;48.782;9.162;2023-07-02T15:40:14;29.33;;;16.70;;
25199;SDS011;33094;48.782;9.162;2023-07-02T15:42:40;22.48;;;14.63;;
25199;SDS011;33094;48.782;9.162;2023-07-02T15:45:06;27.73;;;15.45;;
25199;SDS011;33094;48.782;9.162;2023-07-02T15:47:32;23.95;;;15.30;;
25199;SDS011;33094;48.782;9.162;2023-07-02T15:49:58;24.05;;;14.88;;
25199;SDS011;33094;48.782;9.162;2023-07-02T15:52:24;20.90;;;15.13;;
25199;SDS011;33094;48.782;9.162;2023-07-02T15:54:50;25.80;;;16.03;;
25199;SDS011;33094;48.782;9.162;2023-07-02T15:57:16;21.80;;;15.60;;
25199;SDS011;33094;48.782;9.162;2023-07-02T15:59:41;26.80;;;16.58;;
25199;SDS011;33094;48.782;9.162;2023-07-02T16:02:07;24.07;;;15.47;;
25199;SDS011;33094;48.782;9.162;2023-07-02T16:04:35;23.88;;;15.23;;
25199;SDS011;33094;48.782;9.162;2023-07-02T16:07:00;24.30;;;16.27;;
25199;SDS011;33094;48.782;9.162;2023-07-02T16:09:26;29.42;;;16.95;;
25199;SDS011;33094;48.782;9.162;2023-07-02T16:11:52;23.97;;;15.30;;
25199;SDS011;33094;48.782;9.162;2023-07-02T16:14:18;25.45;;;16.15;;
25199;SDS011;33094;48.782;9.162;2023-07-02T16:16:47;22.48;;;15.00;;
25199;SDS011;33094;48.782;9.162;2023-07-02T16:19:18;27.98;;;15.15;;
25199;SDS011;33094;48.782;9.162;2023-07-02T16:21:45;24.20;;;16.38;;
25199;SDS011;33094;48.782;9.162;2023-07-02T16:24:19;21.25;;;14.63;;
25199;SDS011;33094;48.782;9.162;2023-07-02T16:26:50;25.58;;;16.23;;
25199;SDS011;33094;48.782;9.162;2023-07-02T16:29:17;22.63;;;15.05;;
25199;SDS011;33094;48.782;9.162;2023-07-02T16:31:48;25.13;;;16.48;;
25199;SDS011;33094;48.782;9.162;2023-07-02T16:34:22;25.00;;;15.57;;
25199;SDS011;33094;48.782;9.162;2023-07-02T16:36:48;24.98;;;15.52;;
25199;SDS011;33094;48.782;9.162;2023-07-02T16:39:14;27.10;;;15.27;;
25199;SDS011;33094;48.782;9.162;2023-07-02T16:41:41;25.13;;;15.93;;
25199;SDS011;33094;48.782;9.162;2023-07-02T16:44:20;23.63;;;15.45;;
25199;SDS011;33094;48.782;9.162;2023-07-02T16:46:51;25.17;;;15.98;;
25199;SDS011;33094;48.782;9.162;2023-07-02T16:49:23;25.17;;;15.70;;
25199;SDS011;33094;48.782;9.162;2023-07-02T16:51:50;24.08;;;15.80;;
25199;SDS011;33094;48.782;9.162;2023-07-02T16:54:16;23.50;;;15.13;;
25199;SDS011;33094;48.782;9.162;2023-07-02T16:56:45;24.05;;;16.33;;
25199;SDS011;33094;48.782;9.162;2023-07-02T16:59:13;27.23;;;16.35;;
25199;SDS011;33094;48.782;9.162;2023-07-02T17:01:44;25.00;;;16.05;;
25199;SDS011;33094;48.782;9.162;2023-07-02T17:04:11;23.58;;;15.25;;
25199;SDS011;33094;48.782;9.162;2023-07-02T17:06:44;24.58;;;15.23;;
25199;SDS011;33094;48.782;9.162;2023-07-02T17:09:16;29.13;;;15.50;;
25199;SDS011;33094;48.782;9.162;2023-07-02T17:11:48;24.90;;;15.32;;
25199;SDS011;33094;48.782;9.162;2023-07-02T17:14:18;23.55;;;14.75;;
25199;SDS011;33094;48.782;9.162;2023-07-02T17:16:48;25.25;;;14.73;;
25199;SDS011;33094;48.782;9.162;2023-07-02T17:19:19;23.27;;;15.75;;
25199;SDS011;33094;48.782;9.162;2023-07-02T17:21:50;21.92;;;15.02;;
25199;SDS011;33094;48.782;9.162;2023-07-02T17:24:31;25.63;;;16.23;;
25199;SDS011;33094;48.782;9.162;2023-07-02T17:26:58;25.90;;;14.80;;
25199;SDS011;33094;48.782;9.162;2023-07-02T17:29:24;22.52;;;15.80;;
25199;SDS011;33094;48.782;9.162;2023-07-02T17:31:52;25.45;;;15.10;;
25199;SDS011;33094;48.782;9.162;2023-07-02T17:34:20;24.05;;;15.20;;
25199;SDS011;33094;48.782;9.162;2023-07-02T17:36:56;24.88;;;14.38;;
25199;SDS011;33094;48.782;9.162;2023-07-02T17:39:27;25.98;;;15.00;;
25199;SDS011;33094;48.782;9.162;2023-07-02T17:41:55;25.88;;;15.25;;
25199;SDS011;33094;48.782;9.162;2023-07-02T17:44:23;21.33;;;14.48;;
25199;SDS011;33094;48.782;9.162;2023-07-02T17:46:53;26.23;;;14.68;;
25199;SDS011;33094;48.782;9.162;2023-07-02T17:49:21;26.00;;;14.30;;
25199;SDS011;33094;48.782;9.162;2023-07-02T17:51:49;27.17;;;15.75;;
25199;SDS011;33094;48.782;9.162;2023-07-02T17:54:16;21.48;;;14.43;;
25199;SDS011;33094;48.782;9.162;2023-07-02T17:56:55;23.83;;;14.98;;
25199;SDS011;33094;48.782;9.162;2023-07-02T17:59:21;30.25;;;16.42;;
25199;SDS011;33094;48.782;9.162;2023-07-02T18:01:56;24.42;;;15.10;;
25199;SDS011;33094;48.782;9.162;2023-07-02T18:10:35;25.83;;;16.35;;
25199;SDS011;33094;48.782;9.162;2023-07-02T18:13:01;28.47;;;16.73;;
25199;SDS011;33094;48.782;9.162;2023-07-02T18:15:27;34.33;;;17.10;;
25199;SDS011;33094;48.782;9.162;2023-07-02T18:18:01;28.43;;;16.10;;
25199;SDS011;33094;48.782;9.162;2023-07-02T18:20:27;33.03;;;16.65;;
25199;SDS011;33094;48.782;9.162;2023-07-02T18:22:53;31.17;;;16.10;;
25199;SDS011;33094;48.782;9.162;2023-07-02T18:25:19;32.07;;;16.13;;
25199;SDS011;33094;48.782;9.162;2023-07-02T18:28:00;30.63;;;16.87;;
25199;SDS011;33094;48.782;9.162;2023-07-02T18:30:26;31.40;;;17.10;;
25199;SDS011;33094;48.782;9.162;2023-07-02T18:32:52;28.53;;;16.57;;
25199;SDS011;33094;48.782;9.162;2023-07-02T18:35:18;25.88;;;15.05;;
25199;SDS011;33094;48.782;9.162;2023-07-02T18:37:44;25.30;;;16.15;;
25199;SDS011;33094;48.782;9.162;2023-07-02T18:40:10;32.60;;;17.10;;
25199;SDS011;33094;48.782;9.162;2023-07-02T18:42:36;26.25;;;16.20;;
25199;SDS011;33094;48.782;9.162;2023-07-02T18:45:02;27.67;;;15.80;;
25199;SDS011;33094;48.782;9.162;2023-07-02T18:47:31;31.98;;;16.67;;
25199;SDS011;33094;48.782;9.162;2023-07-02T18:49:56;28.90;;;16.83;;
25199;SDS011;33094;48.782;9.162;2023-07-02T18:52:22;27.90;;;16.27;;
25199;SDS011;33094;48.782;9.162;2023-07-02T18:54:48;31.70;;;16.40;;
25199;SDS011;33094;48.782;9.162;2023-07-02T18:57:14;32.20;;;16.93;;
25199;SDS011;33094;48.782;9.162;2023-07-02T18:59:40;29.93;;;16.50;;
25199;SDS011;33094;48.782;9.162;2023-07-02T19:02:12;29.92;;;16.17;;
25199;SDS011;33094;48.782;9.162;2023-07-02T19:04:38;30.67;;;16.80;;
25199;SDS011;33094;48.782;9.162;2023-07-02T19:07:04;31.67;;;17.77;;
25199;SDS011;33094;48.782;9.162;2023-07-02T19:09:34;31.17;;;16.88;;
25199;SDS011;33094;48.782;9.162;2023-07-02T19:12:01;30.40;;;16.33;;
25199;SDS011;33094;48.782;9.162;2023-07-02T19:14:29;25.80;;;15.88;;
25199;SDS011;33094;48.782;9.162;2023-07-02T19:16:55;32.87;;;15.30;;
25199;SDS011;33094;48.782;9.162;2023-07-02T19:19:20;32.23;;;17.07;;
25199;SDS011;33094;48.782;9.162;2023-07-02T19:21:46;33.33;;;17.13;;
25199;SDS011;33094;48.782;9.162;2023-07-02T19:24:12;33.90;;;15.90;;
25199;SDS011;33094;48.782;9.162;2023-07-02T19:26:38;36.00;;;15.90;;
25199;SDS011;33094;48.782;9.162;2023-07-02T19:29:03;29.63;;;17.43;;
25199;SDS011;33094;48.782;9.162;2023-07-02T19:31:29;35.07;;;16.37;;
25199;SDS011;33094;48.782;9.162;2023-07-02T19:33:55;29.83;;;16.73;;
25199;SDS011;33094;48.782;9.162;2023-07-02T19:36:20;32.47;;;16.40;;
25199;SDS011;33094;48.782;9.162;2023-07-02T19:38:46;30.50;;;16.07;;
25199;SDS011;33094;48.782;9.162;2023-07-02T19:41:12;35.83;;;17.20;;
25199;SDS011;33094;48.782;9.162;2023-07-02T19:43:38;31.20;;;16.97;;
25199;SDS011;33094;48.782;9.162;2023-07-02T19:46:03;33.97;;;17.30;;
25199;SDS011;33094;48.782;9.162;2023-07-02T19:48:29;31.70;;;16.90;;
25199;SDS011;33094;48.782;9.162;2023-07-02T19:50:59;30.73;;;17.07;;
25199;SDS011;33094;48.782;9.162;2023-07-02T19:53:26;28.50;;;17.08;;
25199;SDS011;33094;48.782;9.162;2023-07-02T19:55:52;35.45;;;17.40;;
25199;SDS011;33094;48.782;9.162;2023-07-02T19:58:18;34.10;;;15.90;;
25199;SDS011;33094;48.782;9.162;2023-07-02T20:00:43;34.60;;;17.17;;
25199;SDS011;33094;48.782;9.162;2023-07-02T20:03:09;36.67;;;18.30;;
25199;SDS011;33094;48.782;9.162;2023-07-02T20:05:36;30.95;;;16.70;;
25199;SDS011;33094;48.782;9.162;2023-07-02T20:08:02;32.10;;;17.03;;
25199;SDS011;33094;48.782;9.162;2023-07-02T20:10:32;32.70;;;17.33;;
25199;SDS011;33094;48.782;9.162;2023-07-02T20:12:58;33.57;;;17.20;;
25199;SDS011;33094;48.782;9.162;2023-07-02T20:15:23;33.20;;;16.83;;
25199;SDS011;33094;48.782;9.162;2023-07-02T20:17:49;30.40;;;16.70;;
25199;SDS011;33094;48.782;9.162;2023-07-02T20:20:15;37.30;;;17.63;;
25199;SDS011;33094;48.782;9.162;2023-07-02T20:22:41;31.03;;;16.80;;
25199;SDS011;33094;48.782;9.162;2023-07-02T20:25:08;34.20;;;17.50;;
25199;SDS011;33094;48.782;9.162;2023-07-02T20:27:34;35.20;;;17.25;;
25199;SDS011;33094;48.782;9.162;2023-07-02T20:30:00;28.27;;;16.60;;
25199;SDS011;33094;48.782;9.162;2023-07-02T20:32:25;36.23;;;16.20;;
25199;SDS011;33094;48.782;9.162;2023-07-02T20:34:51;31.30;;;16.73;;
25199;SDS011;33094;48.782;9.162;2023-07-02T20:37:17;28.38;;;16.23;;
25199;SDS011;33094;48.782;9.162;2023-07-02T20:39:44;28.40;;;15.60;;
25199;SDS011;33094;48.782;9.162;2023-07-02T20:42:13;38.35;;;16.70;;
25199;SDS011;33094;48.782;9.162;2023-07-02T20:44:45;30.58;;;16.77;;
25199;SDS011;33094;48.782;9.162;2023-07-02T20:47:14;30.92;;;17.00;;